Time;durP1;ratioP1;P1;durP2;ratioP2;P2;SDS_P1;SDS_P2;PMS_P1;PMS_P2;Temp;Humidity;BMP_temperature;BMP_pressure;BME280_temperature;BME280_humidity;BME280_pressure;Samples;Min_cycle;Max_cycle;Signal;HPM_P1;HPM_P2
2023/04/19 00:02:01;;;;;;;12.15;5.18;;;5.30;83.70;;;;;;4993229;28;20096;-76
2023/04/19 00:04:27;;;;;;;13.85;5.03;;;5.30;83.00;;;;;;5000026;28;20146;-75
2023/04/19 00:06:52;;;;;;;10.32;5.35;;;5.30;82.90;;;;;;5002189;28;20022;-75
2023/04/19 00:09:18;;;;;;;10.52;4.80;;;5.30;82.70;;;;;;5003892;28;20042;-75
2023/04/19 00:11:43;;;;;;;9.10;5.00;;;5.40;82.30;;;;;;5000012;28;20180;-76
2023/04/19 00:14:09;;;;;;;8.30;4.78;;;5.20;82.60;;;;;;5003140;28;20046;-76
2023/04/19 00:16:34;;;;;;;12.00;5.10;;;5.20;82.80;;;;;;5006960;28;20021;-75
2023/04/19 00:19:00;;;;;;;8.25;4.68;;;5.20;82.40;;;;;;5007686;28;20101;-75
2023/04/19 00:21:26;;;;;;;10.30;5.10;;;5.20;82.20;;;;;;5000827;28;20957;-76
2023/04/19 00:23:52;;;;;;;11.32;5.05;;;5.10;82.40;;;;;;4998228;28;20057;-75
2023/04/19 00:26:18;;;;;;;9.20;5.20;;;5.10;82.00;;;;;;5003936;28;20022;-75
2023/04/19 00:28:44;;;;;;;8.63;4.68;;;5.10;82.30;;;;;;5003482;28;20101;-76
2023/04/19 00:31:10;;;;;;;8.30;5.00;;;5.10;82.10;;;;;;5004249;28;20062;-76
2023/04/19 00:33:35;;;;;;;9.82;4.53;;;5.00;82.70;;;;;;4999014;28;20117;-75
2023/04/19 00:36:01;;;;;;;8.48;4.50;;;4.90;82.70;;;;;;5002519;28;20042;-75
2023/04/19 00:38:26;;;;;;;9.07;4.45;;;4.80;82.80;;;;;;4997589;28;20081;-75
2023/04/19 00:40:52;;;;;;;13.35;5.25;;;4.90;82.40;;;;;;4999718;28;20033;-75
2023/04/19 00:43:18;;;;;;;10.07;4.75;;;4.80;82.30;;;;;;4999506;28;20037;-75
2023/04/19 00:45:44;;;;;;;9.05;4.57;;;4.80;82.70;;;;;;4999992;28;20030;-76
2023/04/19 00:48:14;;;;;;;8.13;4.82;;;4.70;83.30;;;;;;5002174;28;20311;-76
2023/04/19 00:50:42;;;;;;;8.18;4.63;;;4.60;83.30;;;;;;4994082;28;20042;-75
2023/04/19 00:53:07;;;;;;;9.77;4.93;;;4.60;83.00;;;;;;4993911;28;20117;-76
2023/04/19 00:55:33;;;;;;;10.45;4.80;;;4.60;83.40;;;;;;4993532;28;20021;-75
2023/04/19 00:57:59;;;;;;;9.93;4.82;;;4.50;83.90;;;;;;5003907;28;20129;-76
2023/04/19 01:00:24;;;;;;;11.32;5.57;;;4.40;83.90;;;;;;5004964;28;20085;-75
2023/04/19 01:02:50;;;;;;;8.90;5.05;;;4.40;84.10;;;;;;5018545;28;20022;-75
2023/04/19 01:05:15;;;;;;;10.07;5.53;;;4.30;84.30;;;;;;5000847;28;20422;-76
2023/04/19 01:07:42;;;;;;;10.98;5.80;;;4.30;84.50;;;;;;5009605;28;20349;-75
2023/04/19 01:10:07;;;;;;;13.68;6.30;;;4.30;84.40;;;;;;5001461;28;20107;-75
2023/04/19 01:12:33;;;;;;;14.35;6.40;;;4.30;84.50;;;;;;4994264;28;20022;-75
2023/04/19 01:14:58;;;;;;;12.30;6.35;;;4.30;84.20;;;;;;5005647;28;20026;-75
2023/04/19 01:17:25;;;;;;;9.25;5.88;;;4.30;84.20;;;;;;5003035;28;20053;-75
2023/04/19 01:19:59;;;;;;;11.63;5.28;;;4.30;84.40;;;;;;4999849;28;20063;-75
2023/04/19 01:22:24;;;;;;;10.85;6.22;;;4.20;84.20;;;;;;4998835;28;20092;-74
2023/04/19 01:24:50;;;;;;;9.93;5.75;;;4.20;84.70;;;;;;5018060;28;20033;-75
2023/04/19 01:27:16;;;;;;;10.35;5.35;;;4.20;84.30;;;;;;5007337;28;20444;-75
2023/04/19 01:29:42;;;;;;;11.73;5.18;;;4.20;84.50;;;;;;5009940;28;20403;-75
2023/04/19 01:32:07;;;;;;;9.55;5.22;;;4.20;83.80;;;;;;5002916;28;20041;-75
2023/04/19 01:34:33;;;;;;;9.25;6.15;;;4.10;84.20;;;;;;5004065;28;20134;-75
2023/04/19 01:36:58;;;;;;;8.82;5.03;;;4.00;84.20;;;;;;5011696;28;20045;-75
2023/04/19 01:39:25;;;;;;;10.32;5.00;;;4.10;84.60;;;;;;5015012;28;20327;-75
2023/04/19 01:41:50;;;;;;;10.40;5.50;;;4.00;84.20;;;;;;5005037;28;20033;-75
2023/04/19 01:44:16;;;;;;;12.55;5.85;;;3.90;85.00;;;;;;5012997;28;20040;-76
2023/04/19 01:46:41;;;;;;;10.13;5.70;;;3.90;84.80;;;;;;5004001;28;20038;-75
2023/04/19 01:49:07;;;;;;;9.05;5.45;;;3.80;84.90;;;;;;5015423;28;20088;-75
2023/04/19 01:51:33;;;;;;;10.07;5.15;;;3.60;85.10;;;;;;5001968;28;20057;-75
2023/04/19 01:53:59;;;;;;;9.48;5.18;;;3.60;85.30;;;;;;5004673;28;20113;-75
2023/04/19 01:56:25;;;;;;;9.98;5.45;;;3.50;85.50;;;;;;4998419;28;20444;-75
2023/04/19 01:58:50;;;;;;;10.80;5.60;;;3.50;85.70;;;;;;5005734;28;20029;-74
2023/04/19 02:01:15;;;;;;;12.43;5.55;;;3.50;85.70;;;;;;4998511;28;20213;-75
2023/04/19 02:03:41;;;;;;;12.80;5.35;;;3.40;85.70;;;;;;4998814;28;20102;-76
2023/04/19 02:06:13;;;;;;;11.98;5.38;;;3.50;86.00;;;;;;4990352;28;20109;-75
2023/04/19 02:08:40;;;;;;;10.10;5.60;;;3.50;85.90;;;;;;5004748;28;20372;-75
2023/04/19 02:11:11;;;;;;;9.25;5.00;;;3.50;85.70;;;;;;5002281;28;20070;-76
2023/04/19 02:13:36;;;;;;;10.63;5.35;;;3.40;85.50;;;;;;5000480;28;20115;-75
2023/04/19 02:16:02;;;;;;;9.90;4.80;;;3.40;85.90;;;;;;5004057;28;20050;-76
2023/04/19 02:18:31;;;;;;;9.95;5.43;;;3.30;85.90;;;;;;5006125;28;20057;-75
2023/04/19 02:20:57;;;;;;;10.07;5.22;;;3.30;86.10;;;;;;5002376;28;20407;-75
2023/04/19 02:23:23;;;;;;;10.20;6.10;;;3.30;86.00;;;;;;5003528;28;20393;-74
2023/04/19 02:25:49;;;;;;;10.70;5.32;;;3.30;86.20;;;;;;5004109;28;20034;-75
2023/04/19 02:28:15;;;;;;;9.30;5.32;;;3.20;86.10;;;;;;5008168;28;20025;-75
2023/04/19 02:30:40;;;;;;;11.38;5.65;;;3.10;86.50;;;;;;5002828;28;20403;-76
2023/04/19 02:33:06;;;;;;;9.38;5.18;;;3.00;86.50;;;;;;5005502;28;20041;-75
2023/04/19 02:35:32;;;;;;;9.43;5.28;;;2.90;86.70;;;;;;5008099;28;20404;-75
2023/04/19 02:38:02;;;;;;;13.18;4.82;;;2.80;87.00;;;;;;5013140;28;20025;-75
2023/04/19 02:40:27;;;;;;;10.90;5.28;;;2.90;87.30;;;;;;5005253;28;20033;-75
2023/04/19 02:42:53;;;;;;;12.13;5.55;;;2.80;87.30;;;;;;5008706;28;20163;-75
2023/04/19 02:45:18;;;;;;;9.07;5.00;;;2.90;87.40;;;;;;5004546;28;20049;-75
2023/04/19 02:47:45;;;;;;;11.65;5.07;;;2.80;87.40;;;;;;5008162;28;20102;-74
2023/04/19 02:50:11;;;;;;;10.73;4.80;;;2.90;87.30;;;;;;5004816;28;20026;-75
2023/04/19 02:52:36;;;;;;;10.88;5.43;;;3.00;87.20;;;;;;5003607;28;20164;-75
2023/04/19 02:55:03;;;;;;;10.82;5.20;;;3.00;87.30;;;;;;4998565;28;20108;-75
2023/04/19 02:57:29;;;;;;;9.57;5.03;;;2.90;87.20;;;;;;4997033;28;20154;-76
2023/04/19 02:59:54;;;;;;;7.78;4.85;;;2.90;87.20;;;;;;5000266;28;20040;-75
2023/04/19 03:02:20;;;;;;;9.40;5.28;;;2.90;87.10;;;;;;4996413;28;20100;-74
2023/04/19 03:04:46;;;;;;;9.18;4.85;;;2.90;87.20;;;;;;5003914;28;20053;-75
2023/04/19 03:07:11;;;;;;;10.02;5.00;;;2.90;87.00;;;;;;4998650;28;20025;-75
2023/04/19 03:09:37;;;;;;;9.88;4.70;;;2.90;87.10;;;;;;5000450;28;20446;-74
2023/04/19 03:12:03;;;;;;;7.60;4.47;;;2.90;87.20;;;;;;5002903;28;20077;-75
2023/04/19 03:14:29;;;;;;;9.05;4.30;;;2.90;86.90;;;;;;5007787;28;20081;-75
2023/04/19 03:16:54;;;;;;;8.68;4.50;;;3.00;86.90;;;;;;5005380;28;20116;-75
2023/04/19 03:19:20;;;;;;;9.13;4.53;;;3.00;86.90;;;;;;4998878;28;20037;-75
2023/04/19 03:21:46;;;;;;;9.98;4.93;;;3.00;87.20;;;;;;5006091;28;20393;-75
2023/04/19 03:24:11;;;;;;;8.38;4.25;;;3.00;86.90;;;;;;5003760;28;20131;-75
2023/04/19 03:26:37;;;;;;;7.68;4.55;;;2.90;86.90;;;;;;5002540;28;20144;-75
2023/04/19 03:29:02;;;;;;;9.18;5.10;;;2.80;87.10;;;;;;5003336;28;20443;-75
2023/04/19 03:31:29;;;;;;;7.93;4.60;;;2.70;87.20;;;;;;4999187;28;20052;-75
2023/04/19 03:33:54;;;;;;;9.23;4.63;;;2.70;87.30;;;;;;5023091;28;20423;-76
2023/04/19 03:36:20;;;;;;;9.85;4.88;;;2.60;87.60;;;;;;4997864;28;20075;-75
2023/04/19 03:38:45;;;;;;;10.30;5.25;;;2.60;87.60;;;;;;5000299;28;20037;-74
2023/04/19 03:41:24;;;;;;;8.73;4.82;;;2.50;87.70;;;;;;5003199;28;20117;-75
2023/04/19 03:43:49;;;;;;;9.15;4.70;;;2.40;88.10;;;;;;5011690;28;20419;-75
2023/04/19 03:46:15;;;;;;;8.63;4.82;;;2.30;88.30;;;;;;5006285;28;20140;-75
2023/04/19 03:48:40;;;;;;;8.38;4.43;;;2.30;88.40;;;;;;4999599;28;20072;-75
2023/04/19 03:51:06;;;;;;;9.18;4.45;;;2.20;88.50;;;;;;4993175;28;20095;-75
2023/04/19 03:53:31;;;;;;;7.75;4.32;;;2.20;88.80;;;;;;4999169;28;20113;-75
2023/04/19 03:55:57;;;;;;;8.30;4.40;;;2.10;88.80;;;;;;5001224;28;20340;-75
2023/04/19 03:58:22;;;;;;;10.60;4.40;;;2.00;88.90;;;;;;5005477;28;20124;-75
2023/04/19 04:00:48;;;;;;;9.80;4.78;;;1.90;89.20;;;;;;4999263;28;20109;-75
2023/04/19 04:03:13;;;;;;;8.40;4.03;;;1.90;89.40;;;;;;4996220;28;20029;-75
2023/04/19 04:05:39;;;;;;;9.77;4.10;;;1.80;89.40;;;;;;4994703;28;20065;-75
2023/04/19 04:08:04;;;;;;;8.63;3.90;;;1.80;89.60;;;;;;4995975;28;20034;-74
2023/04/19 04:10:30;;;;;;;8.05;4.60;;;1.70;89.60;;;;;;4988507;28;20485;-76
2023/04/19 04:12:55;;;;;;;10.30;4.40;;;1.70;89.80;;;;;;4999597;28;20075;-75
2023/04/19 04:15:21;;;;;;;7.70;4.40;;;1.70;89.90;;;;;;5002050;28;20052;-76
2023/04/19 04:17:46;;;;;;;13.30;4.70;;;1.70;89.90;;;;;;5009788;28;20113;-74
2023/04/19 04:20:12;;;;;;;11.27;5.43;;;1.70;90.00;;;;;;4992476;28;20033;-74
2023/04/19 04:22:47;;;;;;;12.82;5.63;;;1.70;90.00;;;;;;4994029;28;20038;-74
2023/04/19 04:25:14;;;;;;;13.55;5.70;;;1.70;90.20;;;;;;4998340;28;20414;-74
2023/04/19 04:27:41;;;;;;;10.70;6.72;;;1.70;90.20;;;;;;4998300;28;20037;-76
2023/04/19 04:30:07;;;;;;;18.13;7.75;;;1.70;90.40;;;;;;4993920;28;20022;-77
2023/04/19 04:32:34;;;;;;;12.90;7.40;;;1.80;90.50;;;;;;4999579;28;20026;-74
2023/04/19 04:35:04;;;;;;;14.65;6.85;;;1.80;90.60;;;;;;5001084;28;20030;-75
2023/04/19 04:37:34;;;;;;;13.82;6.50;;;2.00;90.40;;;;;;4995117;28;20109;-75
2023/04/19 04:40:00;;;;;;;11.63;6.38;;;2.00;90.50;;;;;;4995437;28;20092;-76
2023/04/19 04:42:26;;;;;;;8.52;4.65;;;2.10;90.50;;;;;;5006361;28;20140;-76
2023/04/19 04:44:52;;;;;;;9.43;4.45;;;2.20;90.40;;;;;;5003250;28;20323;-78
2023/04/19 04:47:18;;;;;;;8.65;4.28;;;2.30;90.30;;;;;;5006770;28;20354;-79
2023/04/19 04:49:43;;;;;;;7.35;3.70;;;2.40;90.40;;;;;;5007954;28;20035;-78
2023/04/19 04:52:09;;;;;;;8.10;4.18;;;2.60;90.40;;;;;;5003158;28;20035;-78
2023/04/19 04:54:35;;;;;;;9.73;3.53;;;2.70;90.50;;;;;;5005316;28;20018;-79
2023/04/19 04:57:01;;;;;;;9.25;3.20;;;2.90;90.40;;;;;;5007791;28;20030;-79
2023/04/19 04:59:26;;;;;;;5.85;3.55;;;3.20;90.40;;;;;;5009558;28;20445;-80
2023/04/19 05:01:52;;;;;;;6.55;3.65;;;3.30;89.60;;;;;;4996898;28;20133;-79
2023/04/19 05:04:18;;;;;;;6.00;3.13;;;3.50;89.30;;;;;;5014969;28;20551;-78
2023/04/19 05:06:43;;;;;;;6.85;3.15;;;3.70;88.70;;;;;;4999979;28;20284;-78
2023/04/19 05:09:09;;;;;;;5.78;3.03;;;3.80;88.20;;;;;;5007626;28;20054;-78
2023/04/19 05:11:35;;;;;;;6.32;3.15;;;4.00;88.00;;;;;;5002119;28;20030;-79
2023/04/19 05:14:02;;;;;;;6.55;3.05;;;4.10;87.70;;;;;;4995976;28;20328;-74
2023/04/19 05:16:28;;;;;;;5.72;2.50;;;4.20;87.60;;;;;;4994616;28;20026;-78
2023/04/19 05:18:53;;;;;;;4.13;2.40;;;4.50;87.00;;;;;;5007130;28;20171;-79
2023/04/19 05:21:19;;;;;;;5.22;2.40;;;4.60;86.60;;;;;;5001400;28;20107;-81
2023/04/19 05:23:44;;;;;;;7.60;2.45;;;4.80;85.70;;;;;;5004767;28;20041;-78
2023/04/19 05:26:13;;;;;;;7.13;2.42;;;5.00;85.40;;;;;;5007279;28;20151;-76
2023/04/19 05:28:39;;;;;;;5.72;2.25;;;5.10;84.80;;;;;;5009382;28;20100;-78
2023/04/19 05:31:05;;;;;;;6.07;2.30;;;5.30;84.10;;;;;;5008463;28;20364;-79
2023/04/19 05:33:31;;;;;;;3.60;1.63;;;5.40;84.00;;;;;;5011693;28;20040;-80
2023/04/19 05:35:56;;;;;;;5.07;2.40;;;5.50;83.50;;;;;;5008816;28;20121;-83
2023/04/19 05:38:21;;;;;;;5.80;2.40;;;5.60;82.60;;;;;;5008526;28;20044;-81
2023/04/19 05:40:47;;;;;;;8.23;1.95;;;5.70;82.10;;;;;;5007466;28;20042;-81
2023/04/19 05:43:12;;;;;;;4.40;1.85;;;5.80;81.30;;;;;;5006669;28;20074;-81
2023/04/19 05:45:38;;;;;;;5.30;2.00;;;6.00;79.90;;;;;;5005603;28;20092;-81
2023/04/19 05:48:04;;;;;;;2.75;1.60;;;6.10;78.70;;;;;;5000476;28;20113;-78
2023/04/19 05:50:29;;;;;;;3.55;1.63;;;6.20;79.30;;;;;;4991357;28;20537;-79
2023/04/19 05:52:55;;;;;;;3.33;1.38;;;6.30;79.00;;;;;;5007168;28;20106;-78
2023/04/19 05:55:20;;;;;;;6.72;1.83;;;6.40;79.50;;;;;;5011145;28;20057;-78
2023/04/19 05:57:46;;;;;;;6.00;1.67;;;6.50;78.40;;;;;;5004580;28;20232;-79
2023/04/19 06:00:12;;;;;;;2.70;1.27;;;6.60;77.70;;;;;;4996665;28;20176;-78
2023/04/19 06:02:37;;;;;;;4.00;1.35;;;6.70;77.20;;;;;;5007466;28;20478;-78
2023/04/19 06:05:03;;;;;;;2.67;1.20;;;6.80;75.80;;;;;;4999613;28;20084;-78
2023/04/19 06:07:30;;;;;;;3.65;1.25;;;6.90;74.30;;;;;;5015738;28;20034;-79
2023/04/19 06:09:55;;;;;;;2.22;1.15;;;7.10;74.10;;;;;;5000206;28;20038;-79
2023/04/19 06:12:21;;;;;;;2.33;0.90;;;7.20;73.60;;;;;;5010196;28;20096;-78
2023/04/19 06:14:46;;;;;;;1.90;1.10;;;7.30;72.20;;;;;;5007793;28;20473;-78
2023/04/19 06:17:13;;;;;;;3.05;1.05;;;7.40;72.50;;;;;;4998994;28;20030;-79
2023/04/19 06:19:38;;;;;;;2.35;1.00;;;7.60;72.50;;;;;;5003371;28;20171;-78
2023/04/19 06:22:04;;;;;;;3.33;1.10;;;7.60;71.40;;;;;;5005225;28;20384;-79
2023/04/19 06:24:29;;;;;;;2.17;1.20;;;7.70;71.00;;;;;;5007173;28;20042;-78
2023/04/19 06:26:56;;;;;;;3.28;1.17;;;7.80;71.00;;;;;;5003667;28;20044;-78
2023/04/19 06:29:23;;;;;;;3.10;1.17;;;8.00;69.30;;;;;;5004913;28;20095;-78
2023/04/19 06:31:48;;;;;;;2.83;1.02;;;8.10;69.00;;;;;;5011113;28;20044;-79
2023/04/19 06:34:14;;;;;;;1.70;0.90;;;8.10;69.30;;;;;;5006361;28;20042;-78
2023/04/19 06:36:39;;;;;;;3.33;1.10;;;8.30;67.50;;;;;;5002528;28;20033;-78
2023/04/19 06:39:06;;;;;;;3.53;1.23;;;8.50;68.40;;;;;;5003688;28;20027;-79
2023/04/19 06:41:31;;;;;;;4.45;1.00;;;8.60;67.00;;;;;;5010776;28;20030;-79
2023/04/19 06:43:56;;;;;;;2.15;0.90;;;8.90;64.40;;;;;;5004962;28;20052;-79
2023/04/19 06:46:22;;;;;;;3.00;0.95;;;9.00;65.40;;;;;;5001896;28;20026;-79
2023/04/19 06:48:47;;;;;;;5.00;1.02;;;9.10;64.40;;;;;;5000970;28;20048;-78
2023/04/19 06:51:13;;;;;;;2.17;0.95;;;9.10;65.50;;;;;;4998934;28;20420;-79
2023/04/19 06:53:38;;;;;;;5.35;1.10;;;9.50;62.90;;;;;;5005122;28;20064;-79
2023/04/19 06:56:04;;;;;;;2.65;1.10;;;9.50;63.00;;;;;;5018789;28;20045;-81
2023/04/19 06:58:31;;;;;;;3.22;1.17;;;9.70;63.40;;;;;;5011807;28;20036;-78
2023/04/19 07:00:56;;;;;;;2.45;1.13;;;10.00;61.30;;;;;;4997807;28;20431;-78
2023/04/19 07:03:22;;;;;;;2.85;1.08;;;9.80;60.70;;;;;;5005486;28;20105;-80
2023/04/19 07:05:48;;;;;;;2.08;0.85;;;10.30;61.10;;;;;;5007636;28;20519;-80
2023/04/19 07:08:13;;;;;;;2.85;0.93;;;10.20;60.10;;;;;;5003750;28;20116;-80
2023/04/19 07:10:39;;;;;;;1.48;0.80;;;10.50;57.90;;;;;;4998768;28;20124;-80
2023/04/19 07:13:04;;;;;;;2.50;0.80;;;10.40;59.00;;;;;;5019133;28;20029;-80
2023/04/19 07:15:30;;;;;;;4.03;0.93;;;10.40;60.40;;;;;;5009193;28;20037;-80
2023/04/19 07:17:55;;;;;;;3.08;1.00;;;10.90;58.40;;;;;;5007567;28;20469;-81
2023/04/19 07:20:21;;;;;;;2.20;0.98;;;11.00;59.20;;;;;;5010871;28;20026;-81
2023/04/19 07:22:47;;;;;;;1.50;0.80;;;11.00;57.00;;;;;;5003535;28;20025;-80
2023/04/19 07:25:13;;;;;;;1.73;0.82;;;11.00;56.50;;;;;;5008331;28;20163;-80
2023/04/19 07:27:39;;;;;;;2.38;0.77;;;10.70;56.30;;;;;;5014603;28;20117;-80
2023/04/19 07:30:06;;;;;;;4.22;1.08;;;10.70;54.80;;;;;;5021336;28;20071;-81
2023/04/19 07:32:31;;;;;;;3.17;0.80;;;10.90;56.90;;;;;;5003926;28;20135;-80
2023/04/19 07:34:57;;;;;;;1.48;0.93;;;11.00;55.90;;;;;;4995736;28;20462;-81
2023/04/19 07:37:22;;;;;;;4.32;0.80;;;11.10;56.30;;;;;;5006739;28;20105;-80
2023/04/19 07:39:48;;;;;;;2.55;0.80;;;11.30;54.90;;;;;;5008278;28;20461;-80
2023/04/19 07:42:14;;;;;;;1.95;0.98;;;11.20;54.50;;;;;;4999539;28;20372;-80
2023/04/19 07:44:39;;;;;;;5.60;1.17;;;11.50;55.40;;;;;;5003318;28;20056;-80
2023/04/19 07:47:05;;;;;;;2.65;0.95;;;11.40;55.30;;;;;;5021038;28;20034;-80
2023/04/19 07:49:33;;;;;;;5.32;0.98;;;11.40;53.80;;;;;;5004042;28;20032;-78
2023/04/19 07:52:00;;;;;;;3.67;1.13;;;11.60;54.40;;;;;;4991558;28;20197;-79
2023/04/19 07:54:26;;;;;;;2.25;1.02;;;11.80;54.60;;;;;;5001674;28;20123;-79
2023/04/19 07:56:51;;;;;;;5.00;1.17;;;12.00;54.50;;;;;;5006083;28;20069;-79
2023/04/19 07:59:17;;;;;;;2.15;0.80;;;12.20;52.80;;;;;;5006377;28;20033;-79
2023/04/19 08:01:42;;;;;;;2.38;1.05;;;12.20;53.90;;;;;;5001513;28;20382;-79
2023/04/19 08:04:08;;;;;;;4.63;1.02;;;12.60;54.70;;;;;;5007597;28;20503;-78
2023/04/19 08:06:33;;;;;;;1.33;1.00;;;12.70;53.20;;;;;;5004570;28;20074;-78
2023/04/19 08:08:59;;;;;;;2.33;0.85;;;12.90;53.00;;;;;;5001194;28;20537;-79
2023/04/19 08:11:24;;;;;;;2.85;1.00;;;12.90;50.80;;;;;;5005807;28;20092;-79
2023/04/19 08:13:50;;;;;;;1.17;0.70;;;13.10;51.30;;;;;;5006887;28;20097;-79
2023/04/19 08:16:15;;;;;;;3.22;1.10;;;13.10;49.90;;;;;;5007889;28;20034;-79
2023/04/19 08:18:41;;;;;;;4.13;1.00;;;13.10;52.00;;;;;;4998601;28;20315;-79
2023/04/19 08:21:06;;;;;;;6.47;1.05;;;13.00;50.30;;;;;;5003758;28;20109;-80
2023/04/19 08:23:32;;;;;;;4.47;1.00;;;13.40;49.50;;;;;;4999855;28;20540;-79
2023/04/19 08:25:57;;;;;;;3.92;0.93;;;13.30;50.40;;;;;;5005962;28;20082;-79
2023/04/19 08:28:23;;;;;;;2.53;0.75;;;13.50;50.20;;;;;;5008088;28;20511;-78
2023/04/19 08:30:49;;;;;;;2.88;1.08;;;13.80;49.30;;;;;;4997145;28;20124;-79
2023/04/19 08:33:14;;;;;;;1.00;0.73;;;14.00;47.90;;;;;;5001295;28;20071;-79
2023/04/19 08:35:40;;;;;;;1.50;1.15;;;13.90;47.10;;;;;;4991475;28;20351;-79
2023/04/19 08:38:06;;;;;;;1.52;0.82;;;14.00;46.30;;;;;;5010690;28;20044;-79
2023/04/19 08:40:32;;;;;;;2.58;0.85;;;14.20;48.00;;;;;;5010956;28;20084;-78
2023/04/19 08:42:58;;;;;;;2.22;0.73;;;14.10;48.00;;;;;;5003627;28;20042;-78
2023/04/19 08:45:26;;;;;;;1.25;0.90;;;13.90;46.60;;;;;;5000903;28;20034;-78
2023/04/19 08:47:53;;;;;;;2.78;0.98;;;13.80;45.00;;;;;;4997593;28;20057;-78
2023/04/19 08:50:20;;;;;;;2.25;0.80;;;14.30;44.20;;;;;;4992543;28;20043;-80
2023/04/19 08:52:46;;;;;;;2.72;1.00;;;14.30;47.00;;;;;;5004286;28;20026;-79
2023/04/19 08:55:12;;;;;;;3.00;0.90;;;14.60;45.20;;;;;;5004787;28;20137;-76
2023/04/19 08:57:37;;;;;;;3.38;1.13;;;14.80;45.00;;;;;;5006661;28;20045;-74
2023/04/19 09:00:07;;;;;;;1.92;1.13;;;14.50;43.80;;;;;;4999968;28;20037;-76
2023/04/19 09:02:51;;;;;;;3.80;0.90;;;14.40;43.40;;;;;;4999113;28;20447;-76
2023/04/19 09:05:17;;;;;;;2.53;1.08;;;14.70;42.50;;;;;;5006767;28;20312;-82
2023/04/19 09:07:43;;;;;;;2.47;1.10;;;14.70;41.70;;;;;;5002914;28;20127;-82
2023/04/19 09:10:11;;;;;;;2.92;1.00;;;14.80;41.40;;;;;;5004528;28;20035;-82
2023/04/19 09:12:38;;;;;;;4.55;1.17;;;14.70;42.80;;;;;;5005386;28;20121;-81
2023/04/19 09:15:07;;;;;;;5.95;1.10;;;14.60;41.20;;;;;;5001498;28;20358;-81
2023/04/19 09:17:36;;;;;;;3.00;1.00;;;14.90;41.90;;;;;;5002212;28;20036;-82
2023/04/19 09:20:03;;;;;;;1.70;1.00;;;15.00;40.90;;;;;;5001648;28;20467;-82
2023/04/19 09:22:29;;;;;;;2.92;1.20;;;14.80;39.10;;;;;;4995322;28;20189;-82
2023/04/19 09:24:55;;;;;;;3.40;1.25;;;15.00;41.10;;;;;;4991494;28;20644;-81
2023/04/19 09:27:28;;;;;;;1.27;0.93;;;15.10;40.40;;;;;;4993555;28;20080;-82
2023/04/19 09:29:55;;;;;;;3.88;1.27;;;15.50;38.90;;;;;;4998614;28;20031;-82
2023/04/19 09:32:22;;;;;;;2.10;1.00;;;15.40;39.00;;;;;;4998536;28;20037;-81
2023/04/19 09:34:52;;;;;;;4.40;1.15;;;15.80;38.10;;;;;;5007224;28;20021;-81
2023/04/19 09:37:18;;;;;;;2.95;1.20;;;15.60;38.50;;;;;;5013106;28;20057;-81
2023/04/19 09:39:43;;;;;;;3.90;1.25;;;15.60;37.60;;;;;;5008474;28;20429;-81
2023/04/19 09:42:09;;;;;;;2.88;1.33;;;15.60;37.90;;;;;;4996643;28;20030;-81
2023/04/19 09:44:35;;;;;;;5.63;1.33;;;15.70;38.60;;;;;;5006744;28;20022;-81
2023/04/19 09:47:01;;;;;;;3.13;1.20;;;15.10;36.60;;;;;;5008472;28;20108;-81
2023/04/19 09:49:26;;;;;;;3.05;1.20;;;15.10;35.70;;;;;;5006085;28;20090;-80
2023/04/19 09:51:54;;;;;;;3.55;1.27;;;15.40;35.90;;;;;;5001261;28;20076;-81
2023/04/19 09:54:22;;;;;;;2.72;1.27;;;15.30;36.10;;;;;;5000774;28;20052;-81
2023/04/19 09:56:48;;;;;;;4.05;1.42;;;15.80;37.20;;;;;;5009843;28;20412;-81
2023/04/19 09:59:14;;;;;;;5.40;1.27;;;15.70;33.80;;;;;;5007998;28;20382;-81
2023/04/19 10:01:45;;;;;;;2.90;1.20;;;15.50;34.50;;;;;;5002561;28;20043;-81
2023/04/19 10:04:20;;;;;;;2.42;1.48;;;15.70;34.10;;;;;;5009175;28;20460;-81
2023/04/19 10:06:47;;;;;;;4.30;1.20;;;15.70;34.00;;;;;;4999353;28;20060;-81
2023/04/19 10:09:13;;;;;;;2.50;1.25;;;15.70;31.90;;;;;;4989485;28;20242;-81
2023/04/19 10:11:39;;;;;;;5.60;2.10;;;15.30;32.50;;;;;;5004201;28;20129;-81
2023/04/19 10:14:08;;;;;;;3.75;1.48;;;15.40;33.00;;;;;;5010079;28;20104;-81
2023/04/19 10:16:35;;;;;;;4.75;1.73;;;15.30;32.20;;;;;;5007213;28;20045;-81
2023/04/19 10:19:07;;;;;;;3.72;1.60;;;15.80;34.00;;;;;;5010209;28;20040;-81
2023/04/19 10:21:34;;;;;;;6.13;1.48;;;15.90;32.50;;;;;;5012931;28;20022;-81
2023/04/19 10:24:00;;;;;;;4.57;1.45;;;15.50;32.10;;;;;;5004614;28;20315;-81
2023/04/19 10:26:26;;;;;;;2.83;1.30;;;15.50;32.00;;;;;;5005002;28;20065;-81
2023/04/19 10:28:54;;;;;;;3.03;1.23;;;16.00;32.40;;;;;;5002145;28;20050;-82
2023/04/19 10:31:22;;;;;;;3.05;1.38;;;16.30;33.40;;;;;;5021054;28;20490;-82
2023/04/19 10:33:48;;;;;;;3.13;1.20;;;16.30;33.10;;;;;;5008766;28;20025;-82
2023/04/19 10:36:16;;;;;;;4.32;1.60;;;16.40;34.60;;;;;;5006868;28;20441;-82
2023/04/19 10:38:54;;;;;;;3.35;1.40;;;16.60;33.80;;;;;;5022009;28;20140;-83
2023/04/19 10:41:20;;;;;;;5.85;1.38;;;16.20;32.30;;;;;;4999511;28;20041;-82
2023/04/19 10:43:56;;;;;;;2.50;1.27;;;16.50;32.10;;;;;;5001505;28;20129;-82
2023/04/19 10:46:24;;;;;;;4.13;1.40;;;16.40;31.60;;;;;;5002239;28;20394;-83
2023/04/19 10:48:57;;;;;;;4.72;1.17;;;16.30;32.90;;;;;;5008299;28;20402;-83
2023/04/19 10:51:31;;;;;;;2.80;1.40;;;16.10;32.70;;;;;;4999744;28;20041;-83
2023/04/19 10:54:05;;;;;;;3.00;1.20;;;16.10;31.70;;;;;;5007086;28;20113;-83
2023/04/19 10:56:33;;;;;;;3.35;1.50;;;16.10;32.20;;;;;;5009260;28;20046;-82
2023/04/19 10:59:03;;;;;;;4.85;1.92;;;16.30;31.90;;;;;;5008676;28;20029;-82
2023/04/19 11:01:46;;;;;;;3.17;1.45;;;16.30;32.80;;;;;;5006659;28;20046;-83
2023/04/19 11:04:18;;;;;;;3.28;1.33;;;16.40;30.90;;;;;;5005484;28;20184;-83
2023/04/19 11:06:50;;;;;;;4.22;1.70;;;16.70;32.60;;;;;;4994007;28;20325;-82
2023/04/19 11:09:33;;;;;;;4.07;1.23;;;17.20;33.30;;;;;;5004402;28;20100;-83
2023/04/19 11:12:10;;;;;;;5.60;1.60;;;17.00;31.30;;;;;;5015528;28;20470;-82
2023/04/19 11:15:08;;;;;;;4.85;1.70;;;17.10;31.90;;;;;;5006946;28;20036;-83
2023/04/19 11:17:35;;;;;;;7.28;1.77;;;16.70;28.50;;;;;;4998171;28;20042;-82
2023/04/19 11:20:08;;;;;;;6.38;1.50;;;16.70;30.60;;;;;;5008374;28;20045;-82
2023/04/19 11:22:34;;;;;;;4.35;1.98;;;17.10;30.80;;;;;;4991798;28;20052;-83
2023/04/19 11:25:16;;;;;;;3.60;1.77;;;17.50;30.50;;;;;;5003619;28;20037;-83
2023/04/19 11:27:43;;;;;;;4.03;1.58;;;17.10;29.00;;;;;;5005642;28;20049;-82
2023/04/19 11:30:18;;;;;;;3.42;1.60;;;17.50;30.00;;;;;;5000356;28;20406;-82
2023/04/19 11:32:45;;;;;;;4.97;1.80;;;17.60;29.10;;;;;;5001862;28;20189;-83
2023/04/19 11:35:11;;;;;;;3.35;1.60;;;16.90;27.50;;;;;;5007550;28;20427;-83
2023/04/19 11:37:38;;;;;;;6.75;2.30;;;16.10;28.60;;;;;;5004808;28;20128;-82
2023/04/19 11:40:05;;;;;;;3.80;1.90;;;16.70;29.10;;;;;;5008084;28;20097;-83
2023/04/19 11:42:31;;;;;;;2.83;2.00;;;16.80;30.20;;;;;;4994087;28;20052;-82
2023/04/19 11:44:58;;;;;;;4.50;1.80;;;17.00;27.70;;;;;;5009000;28;20459;-82
2023/04/19 11:47:26;;;;;;;4.22;1.90;;;17.10;27.50;;;;;;5003657;28;20026;-82
2023/04/19 11:49:55;;;;;;;5.07;1.85;;;16.70;28.00;;;;;;4994684;28;20367;-82
2023/04/19 11:52:23;;;;;;;3.97;1.85;;;17.00;30.20;;;;;;5001905;28;20065;-82
2023/04/19 11:54:52;;;;;;;4.13;2.15;;;17.20;29.80;;;;;;4995574;28;20052;-82
2023/04/19 11:57:30;;;;;;;4.22;1.90;;;17.10;28.80;;;;;;5003390;28;20041;-82
2023/04/19 12:00:09;;;;;;;3.95;1.55;;;17.00;28.50;;;;;;5002539;28;20037;-82
2023/04/19 12:02:39;;;;;;;3.55;1.80;;;16.90;28.30;;;;;;5003597;28;20042;-83
2023/04/19 12:05:14;;;;;;;5.05;1.77;;;17.30;28.70;;;;;;4990609;28;20027;-82
2023/04/19 12:08:07;;;;;;;5.32;1.70;;;17.10;28.50;;;;;;5003062;28;20042;-82
2023/04/19 12:10:33;;;;;;;8.48;3.50;;;18.40;29.40;;;;;;4996212;28;20343;-82
2023/04/19 12:12:59;;;;;;;6.93;1.60;;;18.00;26.60;;;;;;5001419;28;20350;-82
2023/04/19 12:15:43;;;;;;;4.18;1.55;;;18.00;29.30;;;;;;4988603;28;20419;-82
2023/04/19 12:18:09;;;;;;;3.22;1.45;;;17.10;28.20;;;;;;5005331;28;20442;-82
2023/04/19 12:20:36;;;;;;;4.95;1.90;;;17.70;27.80;;;;;;5011342;28;20034;-83
2023/04/19 12:23:02;;;;;;;6.53;2.03;;;18.00;28.80;;;;;;4992483;28;20022;-83
2023/04/19 12:25:33;;;;;;;5.93;2.08;;;17.70;26.60;;;;;;4987052;28;20053;-83
2023/04/19 12:28:00;;;;;;;5.35;1.75;;;17.60;28.00;;;;;;5002507;28;20310;-82
2023/04/19 12:30:25;;;;;;;4.70;1.90;;;17.50;27.80;;;;;;5006520;28;20053;-82
2023/04/19 12:32:54;;;;;;;3.42;1.58;;;17.80;28.80;;;;;;5002269;28;20396;-82
2023/04/19 12:35:21;;;;;;;4.88;1.77;;;17.90;27.30;;;;;;5007167;28;20212;-83
2023/04/19 12:37:46;;;;;;;3.42;1.60;;;17.50;28.00;;;;;;4995073;28;20075;-83
2023/04/19 12:40:12;;;;;;;5.80;1.65;;;17.00;28.30;;;;;;5002268;28;20117;-82
2023/04/19 12:42:38;;;;;;;5.50;2.13;;;17.70;28.90;;;;;;5007732;28;20101;-83
2023/04/19 12:45:04;;;;;;;3.08;1.50;;;18.30;28.50;;;;;;4991485;28;20375;-83
2023/04/19 12:47:29;;;;;;;2.75;1.50;;;18.40;28.80;;;;;;5005961;28;20461;-83
2023/04/19 12:49:56;;;;;;;3.72;1.35;;;18.30;27.60;;;;;;4995651;28;20038;-83